createdAt,value
2017-04-07T00:01:13.319Z,20.86
2017-04-07T00:02:13.089Z,21.14
2017-04-07T00:03:13.023Z,21.34
2017-04-07T00:04:12.959Z,20.86
2017-04-07T00:05:12.897Z,21.34
2017-04-07T00:06:12.835Z,20.95
2017-04-07T00:07:12.476Z,21.13
2017-04-07T00:08:12.708Z,21.04
2017-04-07T00:09:12.653Z,21.04
2017-04-07T00:10:12.586Z,21.04
2017-04-07T00:11:12.531Z,21.04
2017-04-07T00:12:12.458Z,21.24
2017-04-07T00:13:12.394Z,21.24
2017-04-07T00:14:12.332Z,21.23
2017-04-07T00:15:12.269Z,21.23
2017-04-07T00:16:11.902Z,20.95
2017-04-07T00:17:12.141Z,21.04
2017-04-07T00:18:12.085Z,21.52
2017-04-07T00:19:12.016Z,21.24
2017-04-07T00:20:11.956Z,21.24
2017-04-07T00:21:11.894Z,21.24
2017-04-07T00:22:11.839Z,21.62
2017-04-07T00:23:11.473Z,21.34
2017-04-07T00:24:11.400Z,21.62
2017-04-07T00:25:11.643Z,21.04
2017-04-07T00:26:11.578Z,21.44
2017-04-07T00:27:11.515Z,21.44
2017-04-07T00:28:11.458Z,21.04
2017-04-07T00:29:11.390Z,21.53
2017-04-07T00:30:11.325Z,21.44
2017-04-07T00:31:11.265Z,21.53
2017-04-07T00:32:11.199Z,21.44
2017-04-07T00:33:11.138Z,21.52
2017-04-07T00:34:10.775Z,21.34
2017-04-07T00:35:11.012Z,21.53
2017-04-07T00:36:10.956Z,21.34
2017-04-07T00:37:10.885Z,21.42
2017-04-07T00:38:10.824Z,21.52
2017-04-07T00:39:10.763Z,21.33
2017-04-07T00:40:10.701Z,21.34
2017-04-07T00:41:10.638Z,21.33
2017-04-07T00:42:10.574Z,21.34
2017-04-07T00:43:10.209Z,21.34
2017-04-07T00:44:10.448Z,21.44
2017-04-07T00:45:10.384Z,21.34
2017-04-07T00:46:10.323Z,21.24
2017-04-07T00:47:10.263Z,21.44
2017-04-07T00:48:10.198Z,21.34
2017-04-07T00:49:10.136Z,21.34
2017-04-07T00:50:10.072Z,21.42
2017-04-07T00:51:10.012Z,21.44
2017-04-07T00:52:09.945Z,21.33
2017-04-07T00:53:09.885Z,21.34
2017-04-07T00:54:09.822Z,21.44
2017-04-07T00:55:09.758Z,21.44
2017-04-07T00:56:09.698Z,21.34
2017-04-07T00:57:09.639Z,21.44
2017-04-07T00:58:09.572Z,21.44
2017-04-07T00:59:09.510Z,21.24
2017-04-07T01:00:09.446Z,21.34
2017-04-07T01:01:09.383Z,21.44
2017-04-07T01:02:09.322Z,21.44
2017-04-07T01:03:09.260Z,21.44
2017-04-07T01:04:09.191Z,21.34
2017-04-07T01:05:09.134Z,21.34
2017-04-07T01:06:09.068Z,21.34
2017-04-07T01:07:09.009Z,21.44
2017-04-07T01:08:08.952Z,21.34
2017-04-07T01:09:08.882Z,21.44
2017-04-07T01:10:08.822Z,21.44
2017-04-07T01:11:08.453Z,21.24
2017-04-07T01:12:08.692Z,21.34
2017-04-07T01:13:08.632Z,21.62
2017-04-07T01:14:08.565Z,21.34
2017-04-07T01:15:08.504Z,21.42
2017-04-07T01:16:08.442Z,21.53
2017-04-07T01:17:08.378Z,21.62
2017-04-07T01:18:08.317Z,21.44
2017-04-07T01:19:08.254Z,21.34
2017-04-07T01:20:08.191Z,21.62
2017-04-07T01:21:08.127Z,21.44
2017-04-07T01:22:07.765Z,21.53
2017-04-07T01:23:08.021Z,21.62
2017-04-07T01:24:07.639Z,21.53
2017-04-07T01:25:07.879Z,21.44
2017-04-07T01:26:07.815Z,21.44
2017-04-07T01:27:07.750Z,21.53
2017-04-07T01:28:07.720Z,21.34
2017-04-07T01:29:07.627Z,21.53
2017-04-07T01:30:07.562Z,21.44
2017-04-07T01:31:07.505Z,21.34
2017-04-07T01:32:07.437Z,21.62
2017-04-07T01:33:07.380Z,21.24
2017-04-07T01:34:07.313Z,21.44
2017-04-07T01:35:07.251Z,21.44
2017-04-07T01:36:07.189Z,21.53
2017-04-07T01:37:07.123Z,21.62
2017-04-07T01:38:07.072Z,21.44
2017-04-07T01:39:07.009Z,21.53
2017-04-07T01:40:07.088Z,21.44
2017-04-07T01:41:06.875Z,21.53
2017-04-07T01:42:06.817Z,21.62
2017-04-07T01:43:06.450Z,21.53
2017-04-07T01:44:06.692Z,21.53
2017-04-07T01:45:06.626Z,21.34
2017-04-07T01:46:06.563Z,21.62
2017-04-07T01:47:06.499Z,21.62
2017-04-07T01:48:06.436Z,21.53
2017-04-07T01:49:06.072Z,21.62
2017-04-07T01:50:06.309Z,21.44
2017-04-07T01:51:06.248Z,21.62
2017-04-07T01:52:06.187Z,21.44
2017-04-07T01:53:06.122Z,21.62
2017-04-07T01:54:06.059Z,21.53
2017-04-07T01:55:05.693Z,21.44
2017-04-07T01:56:05.932Z,21.44
2017-04-07T01:57:05.871Z,21.62
2017-04-07T01:58:05.808Z,21.53
2017-04-07T01:59:05.748Z,21.62
2017-04-07T02:00:05.381Z,21.62
2017-04-07T02:01:05.643Z,21.62
2017-04-07T02:02:05.253Z,21.62
2017-04-07T02:03:05.511Z,21.52
2017-04-07T02:04:05.452Z,21.62
2017-04-07T02:05:05.068Z,21.62
2017-04-07T02:06:05.309Z,21.81
2017-04-07T02:07:05.245Z,21.82
2017-04-07T02:08:05.181Z,21.42
2017-04-07T02:09:05.118Z,21.71
2017-04-07T02:10:05.075Z,21.82
2017-04-07T02:11:04.993Z,21.62
2017-04-07T02:12:04.962Z,21.53
2017-04-07T02:13:04.576Z,21.72
2017-04-07T02:14:04.805Z,21.82
2017-04-07T02:15:04.753Z,21.62
2017-04-07T02:16:04.684Z,21.44
2017-04-07T02:17:04.620Z,21.72
2017-04-07T02:18:04.554Z,21.82
2017-04-07T02:19:04.493Z,21.72
2017-04-07T02:20:04.432Z,21.72
2017-04-07T02:21:04.368Z,21.72
2017-04-07T02:22:04.305Z,21.71
2017-04-07T02:23:04.241Z,21.72
2017-04-07T02:24:04.178Z,21.62
2017-04-07T02:25:04.118Z,21.62
2017-04-07T02:26:04.053Z,21.81
2017-04-07T02:27:03.990Z,21.72
2017-04-07T02:28:03.925Z,21.82
2017-04-07T02:29:03.865Z,21.62
2017-04-07T02:30:03.802Z,21.72
2017-04-07T02:31:03.741Z,21.82
2017-04-07T02:32:03.677Z,21.72
2017-04-07T02:33:03.615Z,21.72
2017-04-07T02:34:03.552Z,21.71
2017-04-07T02:35:03.489Z,21.62
2017-04-07T02:36:03.427Z,21.62
2017-04-07T02:37:03.382Z,21.62
2017-04-07T02:38:03.306Z,21.72
2017-04-07T02:39:03.249Z,21.72
2017-04-07T02:40:03.174Z,21.82
2017-04-07T02:41:03.125Z,21.72
2017-04-07T02:42:03.062Z,21.62
2017-04-07T02:43:02.986Z,21.71
2017-04-07T02:44:02.924Z,21.71
2017-04-07T02:45:02.885Z,21.52
2017-04-07T02:46:02.797Z,21.62
2017-04-07T02:47:02.736Z,21.72
2017-04-07T02:48:02.673Z,21.53
2017-04-07T02:49:02.609Z,21.62
2017-04-07T02:50:02.575Z,21.62
2017-04-07T02:51:02.487Z,21.62
2017-04-07T02:52:02.424Z,21.62
2017-04-07T02:53:02.057Z,21.62
2017-04-07T02:54:02.295Z,21.62
2017-04-07T02:55:02.234Z,21.62
2017-04-07T02:56:02.170Z,21.62
2017-04-07T02:57:02.107Z,21.82
2017-04-07T02:58:02.049Z,21.71
2017-04-07T02:59:01.983Z,21.62
2017-04-07T03:00:01.919Z,21.62
2017-04-07T03:01:01.859Z,21.71
2017-04-07T03:02:01.797Z,21.81
2017-04-07T03:03:01.732Z,21.72
2017-04-07T03:04:01.367Z,21.82
2017-04-07T03:05:01.606Z,21.82
2017-04-07T03:06:01.544Z,21.81
2017-04-07T03:07:01.487Z,21.81
2017-04-07T03:08:01.420Z,21.62
2017-04-07T03:09:01.357Z,21.72
2017-04-07T03:10:01.292Z,21.72
2017-04-07T03:11:01.231Z,21.62
2017-04-07T03:12:01.170Z,21.82
2017-04-07T03:13:01.106Z,21.72
2017-04-07T03:14:01.043Z,21.81
2017-04-07T03:15:00.981Z,21.71
2017-04-07T03:16:00.918Z,21.72
2017-04-07T03:17:00.855Z,21.72
2017-04-07T03:18:00.792Z,21.72
2017-04-07T03:19:00.730Z,21.62
2017-04-07T03:20:00.666Z,21.62
2017-04-07T03:21:00.301Z,21.72
2017-04-07T03:22:00.240Z,21.62
2017-04-07T03:23:00.480Z,21.72
2017-04-07T03:24:00.417Z,21.81
2017-04-07T03:25:00.051Z,21.62
2017-04-07T03:26:00.289Z,21.81
2017-04-07T03:27:00.229Z,21.92
2017-04-07T03:28:00.165Z,21.82
2017-04-07T03:29:00.102Z,21.92
2017-04-07T03:30:00.041Z,21.82
2017-04-07T03:30:59.977Z,21.82
2017-04-07T03:31:59.914Z,21.72
2017-04-07T03:32:59.853Z,21.82
2017-04-07T03:33:59.789Z,21.82
2017-04-07T03:34:59.725Z,21.62
2017-04-07T03:35:59.661Z,21.82
2017-04-07T03:36:59.600Z,21.71
2017-04-07T03:37:59.537Z,21.72
2017-04-07T03:38:59.475Z,21.81
2017-04-07T03:39:59.413Z,21.72
2017-04-07T03:40:59.351Z,21.71
2017-04-07T03:41:59.288Z,21.62
2017-04-07T03:42:59.226Z,21.71
2017-04-07T03:43:58.858Z,21.71
2017-04-07T03:44:59.099Z,21.62
2017-04-07T03:45:59.037Z,21.62
2017-04-07T03:46:58.977Z,21.62
2017-04-07T03:47:58.911Z,21.72
2017-04-07T03:48:58.847Z,21.71
2017-04-07T03:49:58.785Z,21.53
2017-04-07T03:50:58.723Z,21.62
2017-04-07T03:51:58.660Z,21.62
2017-04-07T03:52:58.598Z,21.62
2017-04-07T03:53:58.533Z,21.62
2017-04-07T03:54:58.473Z,21.53
2017-04-07T03:55:58.407Z,21.52
2017-04-07T03:56:58.346Z,21.62
2017-04-07T03:57:58.290Z,21.62
2017-04-07T03:58:58.222Z,21.62
2017-04-07T03:59:58.159Z,21.53
2017-04-07T04:00:58.096Z,21.62
2017-04-07T04:01:58.044Z,21.52
2017-04-07T04:02:57.668Z,21.52
2017-04-07T04:03:57.908Z,21.91
2017-04-07T04:04:57.845Z,21.81
2017-04-07T04:05:57.480Z,22.2
2017-04-07T04:06:57.718Z,21.81
2017-04-07T04:07:57.657Z,21.82
2017-04-07T04:08:57.593Z,22.11
2017-04-07T04:09:57.531Z,21.72
2017-04-07T04:10:57.468Z,22
2017-04-07T04:11:57.405Z,21.72
2017-04-07T04:12:57.344Z,22.19
2017-04-07T04:13:56.977Z,22.19
2017-04-07T04:14:57.215Z,22.1
2017-04-07T04:15:57.158Z,22.1
2017-04-07T04:16:57.092Z,22.19
2017-04-07T04:17:57.029Z,22.19
2017-04-07T04:18:56.968Z,22.02
2017-04-07T04:19:56.901Z,22.1
2017-04-07T04:20:56.843Z,22.2
2017-04-07T04:21:56.780Z,22.19
2017-04-07T04:22:56.714Z,22.19
2017-04-07T04:23:56.685Z,22.11
2017-04-07T04:24:56.589Z,22.19
2017-04-07T04:25:56.527Z,22.2
2017-04-07T04:26:56.462Z,22.2
2017-04-07T04:27:56.401Z,22.11
2017-04-07T04:28:56.340Z,22.29
2017-04-07T04:29:56.276Z,22
2017-04-07T04:30:56.214Z,22.29
2017-04-07T04:31:56.152Z,22.29
2017-04-07T04:32:56.089Z,22.2
2017-04-07T04:33:56.028Z,22.29
2017-04-07T04:34:55.975Z,22.3
2017-04-07T04:35:55.903Z,22.3
2017-04-07T04:36:55.840Z,22.29
2017-04-07T04:37:55.483Z,22.29
2017-04-07T04:38:55.710Z,22.39
2017-04-07T04:39:55.649Z,22.19
2017-04-07T04:40:55.586Z,22.29
2017-04-07T04:41:55.526Z,22.1
2017-04-07T04:42:55.161Z,22.39
2017-04-07T04:43:55.402Z,22.3
2017-04-07T04:44:55.336Z,22.29
2017-04-07T04:45:55.272Z,22.29
2017-04-07T04:46:55.213Z,22.19
2017-04-07T04:47:55.146Z,22.29
2017-04-07T04:48:55.085Z,22.1
2017-04-07T04:49:55.022Z,22.2
2017-04-07T04:50:54.963Z,22.29
2017-04-07T04:51:54.901Z,22.59
2017-04-07T04:52:54.833Z,22.29
2017-04-07T04:53:54.772Z,22.19
2017-04-07T04:54:54.710Z,22.19
2017-04-07T04:55:54.893Z,22.19
2017-04-07T04:56:54.583Z,22.67
2017-04-07T04:57:54.522Z,22.4
2017-04-07T04:58:54.457Z,22.58
2017-04-07T04:59:54.394Z,22.69
2017-04-07T05:00:54.337Z,22.58
2017-04-07T05:01:54.269Z,22.87
2017-04-07T05:02:54.207Z,22.58
2017-04-07T05:03:54.142Z,22.87
2017-04-07T05:04:54.081Z,22.87
2017-04-07T05:05:54.021Z,22.97
2017-04-07T05:06:53.955Z,23.07
2017-04-07T05:07:53.892Z,23.07
2017-04-07T05:08:53.833Z,23.07
2017-04-07T05:09:53.767Z,23.07
2017-04-07T05:10:53.706Z,22.97
2017-04-07T05:11:53.642Z,22.97
2017-04-07T05:12:53.580Z,23.07
2017-04-07T05:13:53.517Z,23.08
2017-04-07T05:14:53.483Z,22.97
2017-04-07T05:15:53.391Z,23.08
2017-04-07T05:16:53.331Z,22.88
2017-04-07T05:17:53.265Z,22.97
2017-04-07T05:18:53.204Z,22.87
2017-04-07T05:19:53.139Z,23.65
2017-04-07T05:20:53.079Z,23.25
2017-04-07T05:21:53.016Z,23.25
2017-04-07T05:22:52.951Z,23.36
2017-04-07T05:23:52.889Z,22.67
2017-04-07T05:24:52.827Z,23.16
2017-04-07T05:25:52.764Z,23.35
2017-04-07T05:26:52.701Z,23.25
2017-04-07T05:27:52.639Z,23.16
2017-04-07T05:28:52.577Z,23.16
2017-04-07T05:29:52.513Z,23.16
2017-04-07T05:30:52.550Z,23.36
2017-04-07T05:31:52.388Z,23.17
2017-04-07T05:32:52.328Z,23.27
2017-04-07T05:33:52.270Z,23.17
2017-04-07T05:34:52.203Z,23.65
2017-04-07T05:35:52.387Z,23.55
2017-04-07T05:36:52.075Z,24.03
2017-04-07T05:37:52.012Z,23.65
2017-04-07T05:38:51.948Z,23.74
2017-04-07T05:39:51.887Z,23.93
2017-04-07T05:40:51.823Z,23.36
2017-04-07T05:41:51.767Z,23.65
2017-04-07T05:42:51.701Z,23.65
2017-04-07T05:43:51.635Z,23.46
2017-04-07T05:44:51.573Z,23.85
2017-04-07T05:45:51.510Z,23.83
2017-04-07T05:46:51.479Z,23.45
2017-04-07T05:47:51.383Z,23.55
2017-04-07T05:48:51.320Z,23.55
2017-04-07T05:49:51.258Z,23.65
2017-04-07T05:50:51.195Z,23.93
2017-04-07T05:51:51.135Z,23.65
2017-04-07T05:52:51.070Z,23.56
2017-04-07T05:53:51.008Z,23.35
2017-04-07T05:54:50.946Z,23.45
2017-04-07T05:55:50.881Z,23.46
2017-04-07T05:56:50.816Z,23.75
2017-04-07T05:57:50.758Z,23.93
2017-04-07T05:58:50.694Z,23.93
2017-04-07T05:59:50.639Z,23.83
2017-04-07T06:00:50.570Z,23.83
2017-04-07T06:01:50.505Z,23.74
2017-04-07T06:02:50.452Z,23.83
2017-04-07T06:03:50.377Z,24.04
2017-04-07T06:04:50.318Z,23.74
2017-04-07T06:05:50.355Z,24.13
2017-04-07T06:06:50.217Z,24.03
2017-04-07T06:07:50.131Z,24.13
2017-04-07T06:08:50.065Z,24.04
2017-04-07T06:09:50.004Z,24.13
2017-04-07T06:10:50.198Z,24.13
2017-04-07T06:11:49.875Z,24.22
2017-04-07T06:12:49.811Z,24.13
2017-04-07T06:13:49.749Z,24.23
2017-04-07T06:14:49.696Z,24.23
2017-04-07T06:15:49.627Z,24.13
2017-04-07T06:16:49.272Z,24.13
2017-04-07T06:17:49.502Z,24.52
2017-04-07T06:18:49.438Z,24.03
2017-04-07T06:19:49.377Z,24.41
2017-04-07T06:20:49.312Z,24.13
2017-04-07T06:21:49.251Z,24.14
2017-04-07T06:22:49.189Z,24.14
2017-04-07T06:23:49.127Z,24.32
2017-04-07T06:24:49.096Z,24.33
2017-04-07T06:25:49.004Z,24.22
2017-04-07T06:26:48.937Z,24.22
2017-04-07T06:27:48.571Z,24.51
2017-04-07T06:28:48.813Z,24.51
2017-04-07T06:29:48.770Z,24.51
2017-04-07T06:30:48.707Z,24.51
2017-04-07T06:31:48.624Z,24.43
2017-04-07T06:32:48.603Z,24.52
2017-04-07T06:33:48.500Z,24.33
2017-04-07T06:34:48.436Z,24.32
2017-04-07T06:35:48.374Z,24.8
2017-04-07T06:36:48.311Z,24.91
2017-04-07T06:37:48.249Z,24.9
2017-04-07T06:38:48.182Z,24.81
2017-04-07T06:39:48.123Z,24.8
2017-04-07T06:40:48.060Z,24.71
2017-04-07T06:41:47.997Z,24.9
2017-04-07T06:42:47.933Z,24.8
2017-04-07T06:43:47.872Z,24.72
2017-04-07T06:44:47.810Z,24.91
2017-04-07T06:45:48.121Z,24.8
2017-04-07T06:46:47.682Z,25.09
2017-04-07T06:47:47.618Z,24.81
2017-04-07T06:48:47.559Z,24.99
2017-04-07T06:49:47.495Z,24.99
2017-04-07T06:50:47.683Z,24.9
2017-04-07T06:51:47.370Z,25.09
2017-04-07T06:52:47.004Z,25.09
2017-04-07T06:53:47.243Z,25.01
2017-04-07T06:54:47.181Z,24.99
2017-04-07T06:55:46.839Z,25.01
2017-04-07T06:56:47.069Z,25.09
2017-04-07T06:57:46.993Z,25.19
2017-04-07T06:58:46.958Z,25.09
2017-04-07T06:59:46.875Z,25.19
2017-04-07T07:00:46.800Z,25.01
2017-04-07T07:01:46.743Z,25.19
2017-04-07T07:02:46.676Z,25.19
2017-04-07T07:03:46.615Z,25.1
2017-04-07T07:04:46.550Z,25.19
2017-04-07T07:05:46.637Z,25.19
2017-04-07T07:06:46.427Z,25.09
2017-04-07T07:07:46.363Z,25.09
2017-04-07T07:08:46.298Z,25.09
2017-04-07T07:09:46.236Z,25.09
2017-04-07T07:10:46.176Z,25.19
2017-04-07T07:11:46.111Z,25.29
2017-04-07T07:12:46.047Z,25.28
2017-04-07T07:13:45.984Z,25.38
2017-04-07T07:14:45.925Z,25.39
2017-04-07T07:15:45.862Z,25.48
2017-04-07T07:16:45.801Z,25.39
2017-04-07T07:17:45.734Z,25.28
2017-04-07T07:18:45.670Z,25.48
2017-04-07T07:19:45.310Z,25.38
2017-04-07T07:20:45.247Z,25.57
2017-04-07T07:21:45.483Z,25.38
2017-04-07T07:22:45.421Z,25.38
2017-04-07T07:23:45.357Z,25.38
2017-04-07T07:24:45.295Z,25.57
2017-04-07T07:25:45.231Z,25.48
2017-04-07T07:26:45.169Z,25.68
2017-04-07T07:27:45.107Z,25.57
2017-04-07T07:28:45.042Z,25.67
2017-04-07T07:29:44.986Z,25.57
2017-04-07T07:30:44.930Z,25.59
2017-04-07T07:31:44.863Z,25.67
2017-04-07T07:32:44.791Z,25.57
2017-04-07T07:33:44.727Z,25.57
2017-04-07T07:34:44.667Z,25.68
2017-04-07T07:35:44.303Z,25.57
2017-04-07T07:36:44.546Z,25.57
2017-04-07T07:37:44.477Z,25.57
2017-04-07T07:38:44.505Z,25.67
2017-04-07T07:39:44.353Z,25.76
2017-04-07T07:40:44.289Z,25.76
2017-04-07T07:41:44.227Z,25.76
2017-04-07T07:42:44.161Z,25.78
2017-04-07T07:43:44.105Z,25.67
2017-04-07T07:44:44.037Z,26.07
2017-04-07T07:45:43.997Z,25.86
2017-04-07T07:46:43.918Z,26.15
2017-04-07T07:47:43.848Z,26.44
2017-04-07T07:48:43.785Z,26.92
2017-04-07T07:49:43.726Z,27.22
2017-04-07T07:50:43.457Z,27.5
2017-04-07T07:51:43.612Z,27.6
2017-04-07T07:52:43.594Z,27.6
2017-04-07T07:53:43.472Z,27.5
2017-04-07T07:54:43.416Z,27.5
2017-04-07T07:55:43.346Z,27.6
2017-04-07T07:56:43.286Z,27.5
2017-04-07T07:57:43.220Z,28.47
2017-04-07T07:58:43.160Z,28.55
2017-04-07T07:59:43.102Z,28.55
2017-04-07T08:00:43.281Z,28.66
2017-04-07T08:01:42.968Z,28.37
2017-04-07T08:02:42.904Z,28.37
2017-04-07T08:03:42.841Z,28.55
2017-04-07T08:04:42.779Z,28.66
2017-04-07T08:05:42.714Z,28.64
2017-04-07T08:06:42.650Z,28.95
2017-04-07T08:07:42.606Z,28.45
2017-04-07T08:08:42.545Z,28.94
2017-04-07T08:09:42.465Z,28.74
2017-04-07T08:10:42.398Z,28.66
2017-04-07T08:11:42.073Z,28.76
2017-04-07T08:12:42.275Z,28.85
2017-04-07T08:13:42.206Z,28.37
2017-04-07T08:14:42.145Z,28.66
2017-04-07T08:15:42.236Z,28.47
2017-04-07T08:16:42.023Z,28.95
2017-04-07T08:17:41.955Z,28.76
2017-04-07T08:18:41.893Z,28.85
2017-04-07T08:19:41.850Z,29.05
2017-04-07T08:20:41.767Z,29.53
2017-04-07T08:21:41.705Z,29.72
2017-04-07T08:22:41.641Z,29.63
2017-04-07T08:23:41.578Z,29.64
2017-04-07T08:24:41.525Z,29.83
2017-04-07T08:25:41.452Z,29.83
2017-04-07T08:26:41.391Z,29.74
2017-04-07T08:27:41.327Z,30.03
2017-04-07T08:28:41.264Z,30.51
2017-04-07T08:29:41.202Z,30.61
2017-04-07T08:30:41.136Z,30.51
2017-04-07T08:31:41.076Z,30.61
2017-04-07T08:32:41.041Z,30.61
2017-04-07T08:33:40.948Z,30.7
2017-04-07T08:34:40.888Z,30.7
2017-04-07T08:35:40.824Z,30.8
2017-04-07T08:36:40.761Z,31.09
2017-04-07T08:37:40.717Z,31.28
2017-04-07T08:38:40.637Z,31.28
2017-04-07T08:39:40.573Z,31.48
2017-04-07T08:40:40.515Z,31.28
2017-04-07T08:41:40.454Z,31.18
2017-04-07T08:42:40.383Z,32.15
2017-04-07T08:43:40.321Z,31.96
2017-04-07T08:44:40.261Z,32.54
2017-04-07T08:45:40.208Z,32.64
2017-04-07T08:46:40.133Z,32.64
2017-04-07T08:47:40.071Z,32.64
2017-04-07T08:48:40.007Z,32.64
2017-04-07T08:49:39.945Z,33.02
2017-04-07T08:50:39.983Z,33.31
2017-04-07T08:51:39.819Z,33.42
2017-04-07T08:52:39.759Z,33.12
2017-04-07T08:53:39.695Z,32.92
2017-04-07T08:54:39.633Z,33.14
2017-04-07T08:55:39.670Z,33.62
2017-04-07T08:56:39.509Z,33.12
2017-04-07T08:57:39.140Z,34.18
2017-04-07T08:58:39.381Z,33.6
2017-04-07T08:59:39.320Z,33.6
2017-04-07T09:00:39.257Z,33.98
2017-04-07T09:01:39.202Z,34.58
2017-04-07T09:02:39.130Z,34.86
2017-04-07T09:03:39.069Z,34.39
2017-04-07T09:04:39.008Z,34.1
2017-04-07T09:05:38.945Z,34.29
2017-04-07T09:06:38.885Z,34.39
2017-04-07T09:07:38.823Z,34.97
2017-04-07T09:08:38.757Z,34.48
2017-04-07T09:09:38.698Z,34.78
2017-04-07T09:10:38.645Z,34.48
2017-04-07T09:11:38.595Z,34.87
2017-04-07T09:12:38.508Z,35.16
2017-04-07T09:13:38.447Z,34.87
2017-04-07T09:14:38.384Z,35.55
2017-04-07T09:15:38.018Z,34.97
2017-04-07T09:16:37.956Z,34.68
2017-04-07T09:17:38.196Z,34.58
2017-04-07T09:18:38.134Z,35.55
2017-04-07T09:19:37.767Z,35.45
2017-04-07T09:20:38.010Z,34.87
2017-04-07T09:21:37.947Z,35.26
2017-04-07T09:22:37.888Z,35.45
2017-04-07T09:23:37.821Z,36.03
2017-04-07T09:24:37.764Z,35.45
2017-04-07T09:25:37.724Z,35.74
2017-04-07T09:26:37.634Z,35.55
2017-04-07T09:27:37.573Z,35.94
2017-04-07T09:28:37.511Z,35.74
2017-04-07T09:29:37.148Z,35.84
2017-04-07T09:30:37.385Z,35.94
2017-04-07T09:31:37.026Z,35.26
2017-04-07T09:32:37.262Z,35.64
2017-04-07T09:33:37.202Z,35.64
2017-04-07T09:34:37.138Z,35.84
2017-04-07T09:35:37.075Z,35.55
2017-04-07T09:36:37.019Z,35.36
2017-04-07T09:37:36.962Z,36.03
2017-04-07T09:38:36.893Z,35.84
2017-04-07T09:39:36.824Z,35.94
2017-04-07T09:40:36.766Z,35.84
2017-04-07T09:41:36.703Z,35.84
2017-04-07T09:42:36.638Z,35.45
2017-04-07T09:43:36.582Z,35.74
2017-04-07T09:44:36.223Z,36.13
2017-04-07T09:45:36.465Z,35.94
2017-04-07T09:46:36.392Z,35.84
2017-04-07T09:47:36.332Z,36.13
2017-04-07T09:48:36.878Z,35.94
2017-04-07T09:49:35.902Z,35.94
2017-04-07T09:50:36.154Z,35.36
2017-04-07T09:51:36.078Z,36.03
2017-04-07T09:52:36.018Z,35.84
2017-04-07T09:53:35.658Z,36.13
2017-04-07T09:54:35.590Z,35.55
2017-04-07T09:55:35.837Z,35.55
2017-04-07T09:56:35.769Z,35.74
2017-04-07T09:57:35.707Z,36.03
2017-04-07T09:58:35.659Z,35.94
2017-04-07T09:59:35.586Z,35.94
2017-04-07T10:00:35.523Z,36.13
2017-04-07T10:01:35.155Z,36.03
2017-04-07T10:02:35.417Z,35.94
2017-04-07T10:03:35.364Z,36.24
2017-04-07T10:04:35.274Z,36.34
2017-04-07T10:05:35.211Z,35.66
2017-04-07T10:06:35.145Z,36.32
2017-04-07T10:07:35.115Z,37.12
2017-04-07T10:08:35.026Z,36.53
2017-04-07T10:09:34.966Z,35.95
2017-04-07T10:10:34.898Z,36.15
2017-04-07T10:11:34.838Z,36.15
2017-04-07T10:12:34.781Z,36.44
2017-04-07T10:13:34.713Z,35.76
2017-04-07T10:14:34.650Z,36.24
2017-04-07T10:15:34.587Z,36.15
2017-04-07T10:16:34.225Z,35.47
2017-04-07T10:17:34.466Z,35.95
2017-04-07T10:18:34.426Z,36.34
2017-04-07T10:19:34.343Z,35.57
2017-04-07T10:20:34.281Z,35.66
2017-04-07T10:21:33.913Z,35.76
2017-04-07T10:22:34.153Z,35.66
2017-04-07T10:23:33.792Z,36.24
2017-04-07T10:24:34.030Z,35.28
2017-04-07T10:25:33.969Z,35.47
2017-04-07T10:26:33.913Z,34.7
2017-04-07T10:27:33.846Z,33.73
2017-04-07T10:28:33.484Z,34.6
2017-04-07T10:29:33.722Z,34.6
2017-04-07T10:30:33.662Z,34.29
2017-04-07T10:31:33.598Z,33.91
2017-04-07T10:32:33.533Z,33.81
2017-04-07T10:33:33.472Z,33.14
2017-04-07T10:34:33.412Z,33.81
2017-04-07T10:35:33.350Z,33.42
2017-04-07T10:36:33.295Z,33.33
2017-04-07T10:37:33.224Z,33.62
2017-04-07T10:38:33.165Z,33.42
2017-04-07T10:39:33.099Z,33.33
2017-04-07T10:40:33.038Z,33.23
2017-04-07T10:41:32.977Z,33.04
2017-04-07T10:42:32.915Z,32.84
2017-04-07T10:43:32.853Z,32.56
2017-04-07T10:44:32.790Z,32.65
2017-04-07T10:45:32.779Z,32.65
2017-04-07T10:46:32.663Z,32.36
2017-04-07T10:47:32.604Z,32.46
2017-04-07T10:48:32.545Z,32.65
2017-04-07T10:49:32.479Z,32.56
2017-04-07T10:50:32.417Z,32.07
2017-04-07T10:51:32.358Z,32.17
2017-04-07T10:52:32.294Z,32.07
2017-04-07T10:53:32.228Z,32.26
2017-04-07T10:54:32.167Z,31.59
2017-04-07T10:55:32.135Z,32.07
2017-04-07T10:56:32.064Z,31.96
2017-04-07T10:57:31.979Z,32.06
2017-04-07T10:58:31.916Z,32.15
2017-04-07T10:59:31.862Z,32.06
2017-04-07T11:00:31.887Z,32.06
2017-04-07T11:01:31.733Z,31.88
2017-04-07T11:02:31.669Z,32.15
2017-04-07T11:03:31.613Z,32.17
2017-04-07T11:04:31.547Z,31.57
2017-04-07T11:05:31.482Z,31.96
2017-04-07T11:06:31.420Z,32.36
2017-04-07T11:07:31.364Z,32.07
2017-04-07T11:08:31.294Z,32.56
2017-04-07T11:09:31.235Z,33.42
2017-04-07T11:10:31.171Z,33.91
2017-04-07T11:11:31.108Z,33.62
2017-04-07T11:12:31.046Z,34
2017-04-07T11:13:30.983Z,33.72
2017-04-07T11:14:30.918Z,33.91
2017-04-07T11:15:30.864Z,33.62
2017-04-07T11:16:30.801Z,33.72
2017-04-07T11:17:30.758Z,33.81
2017-04-07T11:18:30.772Z,33.42
2017-04-07T11:19:30.607Z,34.29
2017-04-07T11:20:30.546Z,34.39
2017-04-07T11:21:30.485Z,34.2
2017-04-07T11:22:30.426Z,34.29
2017-04-07T11:23:30.359Z,34.29
2017-04-07T11:24:30.297Z,34.1
2017-04-07T11:25:30.340Z,34.39
2017-04-07T11:26:30.173Z,34.2
2017-04-07T11:27:30.107Z,34.78
2017-04-07T11:28:30.198Z,33.23
2017-04-07T11:29:30.076Z,34.2
2017-04-07T11:30:29.632Z,34.29
2017-04-07T11:31:29.864Z,34.68
2017-04-07T11:32:29.501Z,34.1
2017-04-07T11:33:29.736Z,34.2
2017-04-07T11:34:29.738Z,34.78
2017-04-07T11:35:29.612Z,34.39
2017-04-07T11:36:29.354Z,34.58
2017-04-07T11:37:29.490Z,34.2
2017-04-07T11:38:29.185Z,34.39
2017-04-07T11:39:29.364Z,34.58
2017-04-07T11:40:28.998Z,34.68
2017-04-07T11:41:29.238Z,34.29
2017-04-07T11:42:29.186Z,33.91
2017-04-07T11:43:29.189Z,34.48
2017-04-07T11:44:29.054Z,34.39
2017-04-07T11:45:28.990Z,34.48
2017-04-07T11:46:28.929Z,34.68
2017-04-07T11:47:28.906Z,34.97
2017-04-07T11:48:28.802Z,34.68
2017-04-07T11:49:28.738Z,34.68
2017-04-07T11:50:28.830Z,34.31
2017-04-07T11:51:28.629Z,34.2
2017-04-07T11:52:28.261Z,34.39
2017-04-07T11:53:28.493Z,34.48
2017-04-07T11:54:28.427Z,34.48
2017-04-07T11:55:28.367Z,34.5
2017-04-07T11:56:28.306Z,34.78
2017-04-07T11:57:27.946Z,34.39
2017-04-07T11:58:28.191Z,34.68
2017-04-07T11:59:28.121Z,33.42
2017-04-07T12:00:28.155Z,33.52
2017-04-07T12:01:27.993Z,33.81
2017-04-07T12:02:28.027Z,33.72
2017-04-07T12:03:27.870Z,33.8
2017-04-07T12:04:27.809Z,33.62
2017-04-07T12:05:27.745Z,33.6
2017-04-07T12:06:27.696Z,33.81
2017-04-07T12:07:27.624Z,33.62
2017-04-07T12:08:27.557Z,33.81
2017-04-07T12:09:27.494Z,33.52
2017-04-07T12:10:27.733Z,33.33
2017-04-07T12:11:27.371Z,33.23
2017-04-07T12:12:27.307Z,33.33
2017-04-07T12:13:27.291Z,33.04
2017-04-07T12:14:27.182Z,33.23
2017-04-07T12:15:27.420Z,32.94
2017-04-07T12:16:27.058Z,33.04
2017-04-07T12:17:26.997Z,33.04
2017-04-07T12:18:26.932Z,33.04
2017-04-07T12:19:26.877Z,32.94
2017-04-07T12:20:26.809Z,32.94
2017-04-07T12:21:26.447Z,32.65
2017-04-07T12:22:26.686Z,32.84
2017-04-07T12:23:26.622Z,32.84
2017-04-07T12:24:26.563Z,32.84
2017-04-07T12:25:26.497Z,32.84
2017-04-07T12:26:26.472Z,32.84
2017-04-07T12:27:26.371Z,32.94
2017-04-07T12:28:26.009Z,32.84
2017-04-07T12:29:26.251Z,32.75
2017-04-07T12:30:26.190Z,32.75
2017-04-07T12:31:26.126Z,32.94
2017-04-07T12:32:26.063Z,32.94
2017-04-07T12:33:25.998Z,32.84
2017-04-07T12:34:25.938Z,32.84
2017-04-07T12:35:25.876Z,32.94
2017-04-07T12:36:25.814Z,33.04
2017-04-07T12:37:25.750Z,32.94
2017-04-07T12:38:25.688Z,32.94
2017-04-07T12:39:25.627Z,32.84
2017-04-07T12:40:25.569Z,32.56
2017-04-07T12:41:25.510Z,32.94
2017-04-07T12:42:25.486Z,32.94
2017-04-07T12:43:25.384Z,32.56
2017-04-07T12:44:25.317Z,32.65
2017-04-07T12:45:25.354Z,32.46
2017-04-07T12:46:25.192Z,32.65
2017-04-07T12:47:25.137Z,32.46
2017-04-07T12:48:25.064Z,32.75
2017-04-07T12:49:25.034Z,32.84
2017-04-07T12:50:24.951Z,33.04
2017-04-07T12:51:24.887Z,32.56
2017-04-07T12:52:24.819Z,32.65
2017-04-07T12:53:24.755Z,32.84
2017-04-07T12:54:24.696Z,32.56